Time;durP1;ratioP1;P1;durP2;ratioP2;P2;SDS_P1;SDS_P2;PMS_P1;PMS_P2;Temp;Humidity;BMP_temperature;BMP_pressure;BME280_temperature;BME280_humidity;BME280_pressure;Samples;Min_cycle;Max_cycle;Signal;HPM_P1;HPM_P2
2021/12/10 00:01:51;;;;;;;10.55;3.13;;;2.20;79.90;;;0.32;89.95;94876.28;4989667;28;20478;-70
2021/12/10 00:04:20;;;;;;;9.10;3.42;;;2.20;80.00;;;0.28;90.24;94861.09;4989721;28;20545;-70
2021/12/10 00:06:54;;;;;;;10.30;3.22;;;2.20;80.00;;;0.27;90.15;94864.66;4957756;28;20092;-68
2021/12/10 00:09:31;;;;;;;6.80;3.25;;;2.10;79.80;;;0.28;90.97;94855.09;4954814;28;20027;-68
2021/12/10 00:12:11;;;;;;;9.43;4.10;;;2.10;80.30;;;0.26;90.41;94849.28;4971431;28;20497;-69
2021/12/10 00:14:37;;;;;;;6.45;3.67;;;2.20;80.40;;;0.27;90.46;94845.72;4989468;28;20042;-70
2021/12/10 00:17:06;;;;;;;8.60;3.42;;;2.10;80.20;;;0.25;90.65;94847.66;4978167;28;20558;-68
2021/12/10 00:19:40;;;;;;;9.88;3.33;;;2.10;80.10;;;0.26;90.29;94846.69;4972272;28;20430;-68
2021/12/10 00:22:10;;;;;;;10.07;3.28;;;2.10;79.80;;;0.27;90.38;94838.78;4989374;28;20176;-68
2021/12/10 00:24:38;;;;;;;8.35;2.90;;;2.20;80.00;;;0.26;90.40;94831.19;4988876;28;20367;-68
2021/12/10 00:27:05;;;;;;;6.50;2.85;;;2.20;79.70;;;0.24;90.10;94823.59;4987448;28;20097;-68
2021/12/10 00:29:33;;;;;;;6.63;2.33;;;2.20;79.70;;;0.27;90.32;94823.28;4989308;28;20030;-69
2021/12/10 00:32:04;;;;;;;7.38;2.85;;;2.20;79.60;;;0.28;90.08;94824.06;4956958;28;20022;-68
2021/12/10 00:34:44;;;;;;;8.45;2.70;;;2.20;79.40;;;0.26;89.83;94818.25;4988478;28;20112;-68
2021/12/10 00:37:13;;;;;;;8.27;2.45;;;2.20;79.50;;;0.24;89.80;94818.41;4994681;28;20042;-68
2021/12/10 00:39:43;;;;;;;10.05;2.38;;;2.10;79.70;;;0.23;89.59;94816.00;4973058;28;20030;-68
2021/12/10 00:42:13;;;;;;;7.53;2.40;;;2.10;79.60;;;0.22;90.10;94809.16;4972491;28;20243;-68
2021/12/10 00:44:39;;;;;;;8.63;2.60;;;2.10;79.60;;;0.23;89.88;94800.47;4957327;28;20351;-68
2021/12/10 00:47:05;;;;;;;9.55;2.50;;;2.10;79.70;;;0.22;90.55;94786.72;4987883;28;20070;-67
2021/12/10 00:49:31;;;;;;;4.85;1.95;;;2.10;79.50;;;0.23;89.63;94774.63;4992246;28;20042;-68
2021/12/10 00:51:56;;;;;;;5.20;2.08;;;2.10;79.40;;;0.22;90.24;94775.56;4989951;28;20031;-68
2021/12/10 00:54:22;;;;;;;5.00;2.28;;;2.10;79.40;;;0.20;89.78;94773.13;4972118;28;20038;-68
2021/12/10 00:56:48;;;;;;;6.47;2.15;;;2.10;79.40;;;0.19;89.41;94768.13;4952403;28;20510;-69
2021/12/10 00:59:14;;;;;;;5.43;2.08;;;2.00;79.30;;;0.18;89.72;94771.69;4937477;28;20424;-67
2021/12/10 01:01:41;;;;;;;6.05;2.10;;;2.00;79.50;;;0.18;89.16;94766.50;4948789;28;20035;-68
2021/12/10 01:04:23;;;;;;;8.73;1.80;;;2.10;79.00;;;0.21;89.28;94768.78;4955571;28;20042;-67
2021/12/10 01:06:50;;;;;;;6.80;1.80;;;2.10;78.90;;;0.19;89.25;94752.59;4972692;28;20560;-69
2021/12/10 01:09:20;;;;;;;6.80;1.90;;;2.10;78.70;;;0.19;88.98;94752.59;4972201;28;20072;-67
2021/12/10 01:11:51;;;;;;;4.63;1.58;;;2.10;78.80;;;0.21;88.78;94755.84;4969311;28;20410;-68
2021/12/10 01:14:33;;;;;;;7.32;2.05;;;2.10;78.70;;;0.17;88.69;94739.84;4955826;28;20150;-67
2021/12/10 01:25:32;;;;;;;5.93;1.70;;;2.10;78.30;;;0.17;88.83;94719.16;4959397;28;20045;-68
2021/12/10 01:27:57;;;;;;;4.57;1.40;;;2.10;78.60;;;0.18;88.59;94725.94;4962236;28;20563;-68
2021/12/10 01:30:31;;;;;;;5.72;1.92;;;2.10;78.40;;;0.19;88.39;94716.41;4957135;28;20046;-68
2021/12/10 01:33:09;;;;;;;3.42;1.50;;;2.10;78.40;;;0.20;88.14;94707.69;4989186;28;20127;-68
2021/12/10 01:35:40;;;;;;;4.93;1.45;;;2.10;78.20;;;0.18;88.30;94705.25;4990043;28;20030;-68
2021/12/10 01:38:07;;;;;;;9.85;1.45;;;2.10;78.10;;;0.18;88.70;94699.28;4972856;28;20062;-68
2021/12/10 01:40:34;;;;;;;5.18;2.08;;;2.10;78.10;;;0.15;88.19;94689.25;4957111;28;20031;-68
2021/12/10 01:43:06;;;;;;;4.63;1.20;;;2.10;78.00;;;0.19;88.33;94682.81;4972268;28;20034;-67
2021/12/10 01:45:46;;;;;;;4.60;1.50;;;2.10;78.00;;;0.17;88.08;94682.16;4970682;28;20039;-68
2021/12/10 01:48:26;;;;;;;5.25;1.55;;;2.10;77.80;;;0.18;88.04;94679.41;4941075;28;20039;-68
2021/12/10 01:50:52;;;;;;;5.53;1.45;;;2.10;77.90;;;0.17;88.23;94676.97;4997318;23;20054;-71
2021/12/10 01:53:22;;;;;;;5.40;1.45;;;2.10;77.40;;;0.18;87.91;94665.66;4938587;28;20032;-70
2021/12/10 01:55:49;;;;;;;5.95;1.35;;;2.10;77.60;;;0.18;87.72;94660.50;4910081;29;20036;-70
2021/12/10 01:58:20;;;;;;;7.50;1.63;;;2.10;77.20;;;0.18;87.58;94657.91;4949765;28;20031;-71
2021/12/10 02:00:50;;;;;;;6.97;1.55;;;2.10;77.30;;;0.19;87.56;94659.53;4944592;28;20114;-71
2021/12/10 02:03:16;;;;;;;4.85;1.23;;;2.10;77.10;;;0.18;87.23;94648.38;4929695;29;20035;-71
2021/12/10 02:05:41;;;;;;;3.13;1.25;;;2.10;76.90;;;0.19;87.64;94649.19;4933129;28;20070;-72
2021/12/10 02:08:08;;;;;;;5.50;1.50;;;2.10;77.10;;;0.19;87.64;94644.03;4949488;28;20040;-71
2021/12/10 02:10:33;;;;;;;8.63;2.00;;;2.10;77.50;;;0.19;87.47;94633.69;4945867;28;20043;-71
2021/12/10 02:12:59;;;;;;;6.70;1.65;;;2.20;77.50;;;0.20;87.74;94630.94;4931418;28;20558;-70
2021/12/10 02:15:28;;;;;;;4.80;1.50;;;2.20;77.30;;;0.17;87.91;94620.09;4949264;28;20421;-71
2021/12/10 02:17:57;;;;;;;7.60;1.60;;;2.10;77.50;;;0.18;87.67;94608.78;4933515;28;20031;-71
2021/12/10 02:20:46;;;;;;;9.00;2.15;;;2.10;77.30;;;0.17;87.46;94604.59;4950358;28;20047;-71
2021/12/10 02:23:12;;;;;;;4.70;1.48;;;2.20;77.40;;;0.17;87.77;94597.66;4948828;28;20050;-70
2021/12/10 02:25:38;;;;;;;6.50;1.55;;;2.30;77.60;;;0.18;87.92;94603.63;4917222;29;20043;-72
2021/12/10 02:28:08;;;;;;;5.68;1.50;;;2.20;77.10;;;0.16;87.10;94593.44;4949045;28;20126;-72
2021/12/10 02:30:34;;;;;;;5.05;1.30;;;2.20;77.20;;;0.16;87.76;94587.47;4933391;29;20043;-71
2021/12/10 02:33:00;;;;;;;6.07;1.65;;;2.20;77.30;;;0.15;87.32;94580.69;4948608;28;20451;-71
2021/12/10 02:35:27;;;;;;;3.78;1.42;;;2.20;77.20;;;0.13;87.52;94578.25;4933324;29;20047;-70
2021/12/10 02:37:53;;;;;;;5.28;1.35;;;2.30;77.40;;;0.10;87.76;94572.63;4948960;28;20042;-70
2021/12/10 02:40:20;;;;;;;7.35;1.30;;;2.10;77.30;;;0.04;87.86;94566.31;4933049;28;20601;-71
2021/12/10 02:42:48;;;;;;;4.95;1.27;;;2.00;77.40;;;-0.02;87.52;94570.34;4932753;28;20527;-71
2021/12/10 02:45:16;;;;;;;6.78;1.42;;;1.90;77.60;;;-0.06;87.92;94563.88;4929811;29;20035;-71
2021/12/10 02:47:43;;;;;;;4.38;1.00;;;1.80;77.70;;;-0.10;87.64;94557.44;4962591;28;20055;-72
2021/12/10 02:50:09;;;;;;;9.05;1.50;;;1.90;77.80;;;-0.15;87.45;94539.03;4935075;29;20035;-71
2021/12/10 02:52:35;;;;;;;6.72;1.50;;;1.90;77.50;;;-0.16;87.69;94545.16;4935864;29;20463;-71
2021/12/10 02:55:00;;;;;;;7.03;1.35;;;1.90;77.60;;;-0.20;87.83;94536.13;4935549;28;20058;-71
2021/12/10 02:57:26;;;;;;;5.95;1.40;;;1.90;77.70;;;-0.21;87.73;94537.09;4920875;29;20039;-71
2021/12/10 02:59:52;;;;;;;6.20;1.42;;;1.80;77.60;;;-0.25;87.25;94532.38;4935652;29;20075;-71
2021/12/10 03:02:21;;;;;;;4.75;1.48;;;1.80;77.60;;;-0.29;87.62;94526.75;4921317;29;20131;-70
2021/12/10 03:04:46;;;;;;;4.60;1.40;;;1.80;77.90;;;-0.33;87.53;94522.88;4952217;28;20470;-71
2021/12/10 03:07:14;;;;;;;4.82;1.30;;;1.80;77.80;;;-0.35;87.76;94519.63;4935568;28;20039;-70
2021/12/10 03:09:42;;;;;;;1.80;0.90;;;1.70;77.80;;;-0.38;87.77;94519.97;4932085;28;20503;-71
2021/12/10 03:12:08;;;;;;;51.83;28.83;;;1.80;77.90;;;-0.40;88.09;94511.56;4936044;28;20036;-70
2021/12/10 03:14:37;;;;;;;62.55;34.67;;;1.80;78.20;;;-0.42;88.46;94501.41;4952307;28;20042;-71
2021/12/10 03:17:09;;;;;;;49.70;30.05;;;1.70;78.30;;;-0.43;88.62;94504.16;4935576;28;20066;-70
2021/12/10 03:19:35;;;;;;;13.20;6.03;;;1.80;78.10;;;-0.47;88.47;94503.63;4952140;28;20360;-71
2021/12/10 03:22:02;;;;;;;11.93;3.60;;;1.70;78.30;;;-0.50;88.09;94498.00;4951627;28;20055;-70
2021/12/10 03:24:27;;;;;;;9.43;2.60;;;1.70;78.30;;;-0.52;88.34;94502.50;4916443;29;20416;-70
2021/12/10 03:26:57;;;;;;;11.93;7.50;;;1.70;78.20;;;-0.54;88.45;94496.69;4935857;28;20040;-70
2021/12/10 03:29:24;;;;;;;15.77;8.60;;;1.70;78.10;;;-0.57;88.37;94500.41;4935114;28;20054;-71
2021/12/10 03:31:50;;;;;;;11.93;5.55;;;1.60;78.50;;;-0.59;88.73;94498.97;4935546;29;20380;-70
2021/12/10 03:34:18;;;;;;;9.77;2.78;;;1.60;78.60;;;-0.64;88.32;94495.09;4924773;29;20126;-70
2021/12/10 03:36:46;;;;;;;3.95;1.73;;;1.60;78.60;;;-0.68;88.32;94483.47;4935198;29;20031;-71
2021/12/10 03:39:16;;;;;;;5.65;1.70;;;1.50;78.50;;;-0.70;88.90;94487.97;4935198;28;20159;-68
2021/12/10 03:41:42;;;;;;;2.58;1.20;;;1.50;78.70;;;-0.73;88.59;94477.97;4919329;29;20057;-67
2021/12/10 03:44:08;;;;;;;3.35;1.42;;;1.40;78.50;;;-0.79;88.53;94473.44;4951226;28;20046;-69
2021/12/10 03:46:34;;;;;;;5.07;1.60;;;1.30;78.30;;;-0.84;88.85;94464.56;4933131;28;20133;-70
2021/12/10 03:49:03;;;;;;;14.23;6.45;;;1.30;78.60;;;-0.88;89.02;94469.25;4937710;28;20539;-69
2021/12/10 03:51:29;;;;;;;35.03;18.30;;;1.30;79.20;;;-0.92;89.34;94463.56;4935531;28;20126;-69
2021/12/10 03:53:54;;;;;;;21.65;11.25;;;1.30;79.50;;;-0.92;89.49;94457.59;4954052;28;20467;-69
2021/12/10 03:56:22;;;;;;;10.65;4.97;;;1.20;79.50;;;-0.97;89.40;94450.34;4962466;28;20038;-69
2021/12/10 03:58:51;;;;;;;5.63;1.92;;;1.20;79.30;;;-1.02;89.03;94451.78;4935222;29;20036;-69
2021/12/10 04:01:20;;;;;;;4.28;1.45;;;1.10;79.00;;;-1.06;88.95;94450.50;4966638;28;20486;-70
2021/12/10 04:03:48;;;;;;;7.30;2.10;;;1.10;79.30;;;-1.08;89.32;94440.34;4951115;28;20106;-71
2021/12/10 04:06:13;;;;;;;5.47;1.30;;;1.10;79.40;;;-1.13;89.04;94439.19;4956299;28;20031;-71
2021/12/10 04:08:39;;;;;;;5.13;1.60;;;1.00;79.40;;;-1.18;89.12;94436.28;4934588;28;20032;-70
2021/12/10 04:11:05;;;;;;;6.55;1.60;;;0.90;79.30;;;-1.23;89.54;94434.97;4934287;28;20046;-70
2021/12/10 04:13:31;;;;;;;3.80;1.60;;;0.90;79.70;;;-1.24;89.61;94422.25;4919026;29;20051;-70
2021/12/10 04:15:57;;;;;;;4.10;1.90;;;0.90;79.90;;;-1.30;89.12;94417.72;4950919;28;20154;-70
2021/12/10 04:18:23;;;;;;;9.57;2.83;;;0.80;79.30;;;-1.35;88.78;94415.63;4934241;29;20028;-71
2021/12/10 04:20:48;;;;;;;7.68;2.50;;;0.70;79.30;;;-1.40;89.16;94410.13;4950585;28;20039;-70
2021/12/10 04:23:17;;;;;;;5.65;1.42;;;0.60;79.30;;;-1.48;88.82;94399.78;4918405;29;20043;-71
2021/12/10 04:25:43;;;;;;;4.93;1.30;;;0.60;79.40;;;-1.52;88.95;94406.22;4950593;28;20031;-69
2021/12/10 04:28:11;;;;;;;3.90;1.58;;;0.50;79.40;;;-1.58;89.33;94397.34;4950512;28;20470;-70
2021/12/10 04:30:40;;;;;;;4.90;2.33;;;0.50;79.30;;;-1.62;89.02;94402.97;4934764;28;20046;-70
2021/12/10 04:33:07;;;;;;;6.10;2.90;;;0.40;79.40;;;-1.67;88.74;94402.63;4949987;28;20031;-70
2021/12/10 04:35:33;;;;;;;16.85;8.23;;;0.40;79.30;;;-1.72;89.09;94399.72;4915610;29;20440;-69
2021/12/10 04:37:59;;;;;;;11.40;6.15;;;0.40;79.60;;;-1.74;89.03;94404.22;4950228;28;20030;-70
2021/12/10 04:40:25;;;;;;;5.25;1.95;;;0.30;79.70;;;-1.78;89.17;94398.56;4934792;29;20070;-70
2021/12/10 04:42:51;;;;;;;3.92;1.40;;;0.20;79.90;;;-1.80;89.32;94397.94;4933558;28;20035;-70
2021/12/10 04:45:18;;;;;;;3.55;1.13;;;0.30;80.20;;;-1.82;89.48;94388.72;4934094;28;20407;-68
2021/12/10 04:47:45;;;;;;;3.05;1.10;;;0.30;80.10;;;-1.83;89.00;94387.09;4949534;28;20073;-66
2021/12/10 04:50:11;;;;;;;3.10;1.20;;;0.30;80.00;;;-1.87;89.17;94382.25;4933517;29;20574;-73
2021/12/10 04:52:36;;;;;;;3.67;1.25;;;0.30;79.80;;;-1.91;89.27;94380.16;4935382;28;20043;-73
2021/12/10 04:55:07;;;;;;;2.75;1.20;;;0.20;79.70;;;-1.94;89.49;94383.84;4946224;28;20058;-72
2021/12/10 04:57:33;;;;;;;4.03;1.30;;;0.20;79.90;;;-1.98;89.23;94372.25;4935050;29;20027;-73
2021/12/10 04:59:59;;;;;;;3.90;1.20;;;0.10;79.70;;;-2.01;89.45;94372.56;4949866;28;20035;-73
2021/12/10 05:02:25;;;;;;;6.05;1.40;;;0.10;80.00;;;-2.04;89.52;94367.69;4934292;29;20035;-73
2021/12/10 05:04:56;;;;;;;4.45;1.40;;;0.10;80.00;;;-2.05;89.84;94366.06;4934019;28;20031;-73
2021/12/10 05:07:22;;;;;;;4.47;1.23;;;0.10;80.20;;;-2.05;89.63;94360.91;4935631;28;20073;-73
2021/12/10 05:09:48;;;;;;;2.10;1.15;;;0.10;80.20;;;-2.09;89.62;94348.50;4950195;28;20031;-73
2021/12/10 05:12:14;;;;;;;3.67;1.35;;;0.10;80.10;;;-2.11;89.68;94333.22;4933712;29;20058;-73
2021/12/10 05:14:39;;;;;;;3.53;1.05;;;0.10;80.30;;;-2.12;89.81;94316.16;4918806;29;20723;-73
2021/12/10 05:17:07;;;;;;;3.13;1.40;;;0.10;80.40;;;-2.12;90.16;94310.19;4949816;28;20495;-72
2021/12/10 05:19:34;;;;;;;10.25;4.25;;;0.10;80.70;;;-2.12;90.09;94310.19;4950312;28;20110;-72
2021/12/10 05:22:00;;;;;;;8.00;2.63;;;0.10;80.80;;;-2.13;90.07;94314.53;4950256;28;20042;-72
2021/12/10 05:24:27;;;;;;;6.40;1.95;;;0.10;80.60;;;-2.14;90.41;94323.22;4950068;28;20039;-73
2021/12/10 05:26:53;;;;;;;5.53;2.03;;;0.00;80.50;;;-2.14;90.33;94325.81;4949423;28;20110;-73
2021/12/10 05:29:19;;;;;;;4.72;1.80;;;0.00;80.60;;;-2.18;90.24;94334.81;4950159;28;20032;-72
2021/12/10 05:31:45;;;;;;;6.22;1.58;;;0.00;80.40;;;-2.18;90.21;94329.66;4966111;28;20110;-73
2021/12/10 05:34:12;;;;;;;7.07;1.75;;;0.00;80.50;;;-2.19;90.05;94317.75;4950072;28;20042;-73
2021/12/10 05:36:38;;;;;;;4.93;1.70;;;0.00;80.20;;;-2.19;90.02;94325.47;4949794;28;20585;-74
2021/12/10 05:39:04;;;;;;;5.32;1.65;;;0.00;80.20;;;-2.22;90.21;94312.91;4949696;28;20039;-73
2021/12/10 05:41:30;;;;;;;5.47;2.00;;;0.00;80.10;;;-2.25;89.80;94310.66;4934134;28;20384;-73
2021/12/10 05:43:56;;;;;;;3.78;1.85;;;0.00;80.00;;;-2.27;89.96;94299.66;4933699;28;20054;-74
2021/12/10 05:46:21;;;;;;;5.43;2.38;;;0.00;80.00;;;-2.29;89.91;94307.53;4933795;29;20067;-73
2021/12/10 05:48:47;;;;;;;4.40;2.50;;;0.00;80.00;;;-2.29;89.46;94296.44;4933522;28;20039;-73
2021/12/10 05:51:13;;;;;;;3.70;2.40;;;0.00;79.80;;;-2.29;89.95;94291.28;4960216;28;20177;-73
2021/12/10 05:53:39;;;;;;;5.32;2.58;;;0.00;79.80;;;-2.32;89.68;94291.59;4934498;29;20094;-74
2021/12/10 05:56:05;;;;;;;5.35;2.55;;;-3276.70;79.80;;;-2.32;89.58;94286.47;4934183;29;20141;-71
2021/12/10 05:58:31;;;;;;;5.03;2.20;;;0.00;80.00;;;-2.35;89.79;94286.78;4942930;28;20560;-72
2021/12/10 06:01:03;;;;;;;9.18;2.78;;;-3276.70;80.10;;;-2.38;89.86;94292.22;4934050;28;20134;-72
2021/12/10 06:03:34;;;;;;;6.18;2.92;;;-3276.60;80.50;;;-2.39;90.20;94295.78;4931256;28;20107;-73
2021/12/10 06:05:59;;;;;;;6.25;3.45;;;-3276.60;80.20;;;-2.42;90.18;94281.44;4946561;28;20047;-72
2021/12/10 06:08:25;;;;;;;5.40;3.20;;;-3276.70;81.00;;;-2.41;90.33;94292.53;4930741;28;20144;-73
2021/12/10 06:10:52;;;;;;;5.90;3.15;;;-3276.70;81.30;;;-2.43;90.28;94281.59;4945994;28;20440;-73
2021/12/10 06:13:18;;;;;;;6.10;2.60;;;-3276.70;80.80;;;-2.41;90.74;94282.25;4930520;29;20036;-72
2021/12/10 06:15:44;;;;;;;5.55;2.70;;;-3276.70;81.10;;;-2.43;90.77;94269.53;4946563;28;20584;-73
2021/12/10 06:18:09;;;;;;;4.38;2.65;;;-3276.70;81.10;;;-2.41;91.07;94269.38;4949837;28;20550;-73
2021/12/10 06:20:39;;;;;;;7.15;3.80;;;-3276.70;81.40;;;-2.40;90.99;94263.25;4949604;28;20400;-74
2021/12/10 06:23:05;;;;;;;6.07;3.22;;;-3276.70;81.10;;;-2.42;90.54;94254.91;4949537;28;20438;-72
2021/12/10 06:25:31;;;;;;;14.68;8.27;;;-3276.70;80.70;;;-2.42;90.92;94249.75;4953126;28;20051;-71
2021/12/10 06:27:57;;;;;;;16.73;10.23;;;-3276.60;81.50;;;-2.43;90.96;94245.56;4921310;29;20046;-73
2021/12/10 06:30:28;;;;;;;17.92;10.90;;;-3276.70;81.10;;;-2.44;91.31;94233.66;4953078;28;20530;-73
2021/12/10 06:32:54;;;;;;;14.90;9.15;;;-3276.70;81.70;;;-2.44;91.18;94225.94;4952427;28;20073;-72
2021/12/10 06:35:21;;;;;;;16.15;8.77;;;-3276.70;81.10;;;-2.44;90.98;94220.78;4933918;29;20106;-72
2021/12/10 06:37:47;;;;;;;13.93;7.95;;;-3276.70;80.90;;;-2.46;91.04;94213.22;4934001;28;20082;-73
2021/12/10 06:40:16;;;;;;;19.98;6.97;;;-3276.60;80.80;;;-2.48;91.13;94210.81;4934181;28;20079;-73
2021/12/10 06:42:42;;;;;;;11.75;6.63;;;-3276.70;80.60;;;-2.48;90.97;94205.66;4949226;28;20424;-73
2021/12/10 06:45:10;;;;;;;10.13;6.13;;;-3276.60;80.60;;;-2.51;90.58;94205.94;4933642;28;20027;-72
2021/12/10 06:47:36;;;;;;;10.60;6.47;;;-3276.60;80.40;;;-2.51;91.03;94200.78;4933983;29;20047;-73
2021/12/10 06:50:03;;;;;;;13.07;7.07;;;-3276.60;80.50;;;-2.50;90.77;94206.75;4917811;29;20036;-73
2021/12/10 06:52:29;;;;;;;13.40;7.65;;;-3276.60;80.50;;;-2.54;90.85;94190.81;4959157;28;20062;-73
2021/12/10 06:54:54;;;;;;;14.02;8.38;;;-3276.60;80.50;;;-2.53;90.57;94187.28;4969095;28;20161;-73
2021/12/10 06:57:20;;;;;;;13.10;8.00;;;-3276.60;80.50;;;-2.53;90.79;94192.41;4947925;28;20036;-72
2021/12/10 06:59:46;;;;;;;13.75;8.35;;;-3276.60;80.50;;;-2.55;90.65;94178.91;4948833;28;20102;-72
2021/12/10 07:02:12;;;;;;;10.70;7.38;;;-3276.60;80.30;;;-2.54;90.56;94174.56;4936139;28;20074;-72
2021/12/10 07:04:41;;;;;;;17.40;8.00;;;-3276.60;80.30;;;-2.54;90.68;94180.53;4933437;29;20032;-73
2021/12/10 07:07:08;;;;;;;15.07;8.63;;;-3276.60;80.30;;;-2.55;90.70;94181.47;4937010;28;20066;-72
2021/12/10 07:09:34;;;;;;;12.55;7.78;;;-3276.60;80.50;;;-2.55;91.14;94176.34;4920656;29;20158;-72
2021/12/10 07:12:00;;;;;;;11.35;7.30;;;-3276.60;80.50;;;-2.54;90.43;94177.94;4936298;28;20036;-73
2021/12/10 07:14:25;;;;;;;13.02;7.57;;;-3276.70;80.30;;;-2.54;90.75;94177.94;4936081;28;20483;-73
2021/12/10 07:16:51;;;;;;;11.48;7.57;;;-3276.60;80.30;;;-2.55;91.00;94184.06;4932885;28;20046;-73
2021/12/10 07:19:17;;;;;;;14.32;8.40;;;-3276.60;80.40;;;-2.54;90.68;94175.38;4933168;29;20035;-72
2021/12/10 07:21:44;;;;;;;15.20;8.23;;;-3276.60;80.20;;;-2.53;90.54;94166.69;4944207;28;20126;-72
2021/12/10 07:24:13;;;;;;;13.45;8.65;;;-3276.70;80.10;;;-2.51;90.95;94169.09;4936730;28;20043;-72
2021/12/10 07:26:39;;;;;;;15.82;10.52;;;-3276.70;80.20;;;-2.49;90.84;94160.28;4952618;28;20047;-72
2021/12/10 07:29:05;;;;;;;17.77;10.52;;;0.00;80.10;;;-2.45;90.74;94167.69;4952317;28;20367;-73
2021/12/10 07:31:31;;;;;;;16.45;10.15;;;0.00;80.00;;;-2.43;91.15;94163.19;4952262;28;20056;-73
2021/12/10 07:33:56;;;;;;;16.52;9.65;;;0.00;79.80;;;-2.42;90.56;94164.81;4933038;29;20471;-73
2021/12/10 07:36:23;;;;;;;15.68;9.55;;;0.00;79.60;;;-2.41;90.80;94162.06;4932579;29;20543;-73
2021/12/10 07:38:50;;;;;;;13.80;9.65;;;0.00;79.70;;;-2.39;90.96;94165.28;4933523;28;20114;-73
2021/12/10 07:41:15;;;;;;;15.52;9.77;;;0.00;79.50;;;-2.37;90.97;94157.41;4951963;28;20109;-72
2021/12/10 07:43:41;;;;;;;15.20;9.40;;;0.00;79.30;;;-2.34;90.87;94157.09;4936123;28;20463;-73
2021/12/10 07:46:07;;;;;;;14.57;9.85;;;0.10;79.30;;;-2.30;90.78;94158.38;4936532;28;20553;-72
2021/12/10 07:48:34;;;;;;;15.13;10.20;;;0.20;79.10;;;-2.28;90.52;94157.25;4936123;29;20067;-73
2021/12/10 07:51:11;;;;;;;16.40;10.90;;;0.10;79.00;;;-2.26;90.52;94144.25;4935488;28;20039;-73
2021/12/10 07:53:37;;;;;;;17.45;10.27;;;0.20;78.90;;;-2.23;90.78;94137.00;4942601;28;20102;-73
2021/12/10 07:56:05;;;;;;;18.23;10.90;;;0.30;78.80;;;-2.18;90.46;94141.66;4963471;28;20054;-72
2021/12/10 07:58:31;;;;;;;16.00;10.88;;;0.30;78.80;;;-2.13;90.85;94133.47;4938042;28;20047;-73
2021/12/10 08:00:57;;;;;;;16.55;11.45;;;0.40;78.70;;;-2.10;90.76;94126.22;4951531;28;20036;-72
2021/12/10 08:03:22;;;;;;;17.52;11.57;;;0.40;78.40;;;-2.05;90.34;94123.94;4935596;28;20123;-73
2021/12/10 08:05:48;;;;;;;19.35;11.38;;;0.50;78.40;;;-2.00;90.27;94115.78;4936117;28;20158;-72
2021/12/10 08:08:14;;;;;;;14.70;10.48;;;0.60;78.10;;;-1.94;90.66;94110.78;4935943;29;20074;-73
2021/12/10 08:10:41;;;;;;;17.75;10.88;;;0.70;78.30;;;-1.89;90.37;94103.34;4935749;28;20813;-73
2021/12/10 08:13:06;;;;;;;15.88;10.65;;;0.70;77.70;;;-1.83;90.35;94106.25;4935377;28;20046;-73
2021/12/10 08:15:32;;;;;;;15.95;10.18;;;0.80;77.50;;;-1.79;90.14;94108.34;4920086;29;20035;-73
2021/12/10 08:17:58;;;;;;;16.00;10.38;;;0.80;77.30;;;-1.71;89.78;94094.66;4936127;28;20046;-72
2021/12/10 08:20:25;;;;;;;15.20;10.02;;;0.90;76.80;;;-1.65;89.93;94093.97;4935775;28;20070;-74
2021/12/10 08:22:51;;;;;;;15.43;9.95;;;1.00;76.70;;;-1.61;89.72;94105.56;4934844;28;20119;-72
2021/12/10 08:25:19;;;;;;;14.23;9.30;;;1.00;76.50;;;-1.58;89.62;94094.97;4936109;29;20063;-72
2021/12/10 08:27:45;;;;;;;13.43;9.38;;;1.00;76.50;;;-1.55;89.33;94095.44;4920633;29;20514;-73
2021/12/10 08:30:12;;;;;;;14.70;9.23;;;1.00;76.40;;;-1.52;89.16;94096.88;4935923;28;20130;-72
2021/12/10 08:32:39;;;;;;;14.50;8.73;;;1.00;76.20;;;-1.49;89.23;94096.53;4935486;28;20047;-73
2021/12/10 08:35:07;;;;;;;14.75;9.30;;;1.00;76.10;;;-1.47;89.20;94086.06;4919615;28;20043;-73
2021/12/10 08:37:33;;;;;;;12.90;8.82;;;1.10;76.00;;;-1.43;88.78;94087.34;4951809;28;20024;-73
2021/12/10 08:39:59;;;;;;;14.25;9.23;;;1.10;75.70;;;-1.41;88.83;94086.19;4935902;28;20038;-72
2021/12/10 08:42:25;;;;;;;14.27;8.43;;;1.10;75.60;;;-1.34;89.00;94091.50;4935404;28;20031;-73
2021/12/10 08:44:51;;;;;;;11.93;8.15;;;1.20;75.60;;;-1.30;88.89;94078.13;4934996;28;20035;-73
2021/12/10 08:47:17;;;;;;;14.13;8.27;;;1.30;75.50;;;-1.23;88.81;94073.09;4950580;28;20451;-73
2021/12/10 08:49:44;;;;;;;13.13;8.45;;;1.40;75.30;;;-1.15;88.71;94069.66;4935951;29;20054;-73
2021/12/10 08:52:10;;;;;;;12.10;7.97;;;1.50;75.20;;;-1.07;88.63;94067.88;4934915;29;20599;-72
2021/12/10 08:54:37;;;;;;;12.63;7.22;;;1.70;74.90;;;-0.97;88.52;94054.75;4944088;28;20516;-72
2021/12/10 08:57:03;;;;;;;11.20;7.10;;;1.80;74.30;;;-0.83;88.23;94061.81;4960100;28;20038;-72
2021/12/10 08:59:29;;;;;;;12.27;7.90;;;2.10;73.80;;;-0.70;88.41;94051.69;4969376;28;20031;-72
2021/12/10 09:01:59;;;;;;;10.90;6.30;;;2.30;73.00;;;-0.55;87.71;94058.72;4952233;28;20180;-71
2021/12/10 09:04:25;;;;;;;10.55;6.60;;;2.40;72.20;;;-0.42;87.64;94061.56;4935789;29;20028;-73
2021/12/10 09:06:55;;;;;;;9.00;6.35;;;2.60;71.30;;;-0.30;87.15;94065.34;4932353;28;20399;-72
2021/12/10 09:09:21;;;;;;;10.10;6.57;;;2.80;70.90;;;-0.17;86.84;94052.66;4908300;28;20035;-73
2021/12/10 09:11:53;;;;;;;9.52;6.50;;;2.80;70.50;;;-0.10;86.02;94061.31;4951644;28;20521;-72
2021/12/10 09:14:20;;;;;;;10.85;6.25;;;2.90;70.30;;;-0.02;86.20;94058.66;4951374;28;20031;-74
2021/12/10 09:16:46;;;;;;;9.70;6.28;;;3.00;69.00;;;0.10;86.37;94050.50;4919280;29;20037;-73
2021/12/10 09:19:14;;;;;;;10.35;6.10;;;3.10;69.20;;;0.21;86.00;94044.88;4935117;28;20039;-72
2021/12/10 09:21:43;;;;;;;10.27;6.20;;;3.30;68.70;;;0.30;84.77;94030.91;4946669;29;20031;-72
2021/12/10 09:24:09;;;;;;;8.82;5.88;;;3.40;67.90;;;0.38;85.01;94028.25;4934600;29;20031;-72
2021/12/10 09:26:37;;;;;;;10.25;5.88;;;3.50;67.60;;;0.46;84.63;94024.78;4934645;29;20515;-72
2021/12/10 09:29:05;;;;;;;10.48;6.15;;;3.60;67.20;;;0.58;84.69;94021.56;4934903;28;20035;-73
2021/12/10 09:31:31;;;;;;;7.88;5.93;;;3.70;66.60;;;0.69;84.14;94020.31;4935132;28;20027;-72
2021/12/10 09:33:58;;;;;;;7.53;5.30;;;3.90;66.30;;;0.77;84.16;94003.88;4950620;28;20028;-72
2021/12/10 09:36:23;;;;;;;8.40;5.60;;;3.90;66.30;;;0.81;83.66;94002.53;4934318;29;20512;-72
2021/12/10 09:38:50;;;;;;;8.00;5.10;;;4.10;65.50;;;0.93;83.62;93995.94;4950816;28;20043;-73
2021/12/10 09:41:15;;;;;;;7.20;4.82;;;4.40;64.70;;;1.06;83.17;94001.25;4949581;28;20043;-73
2021/12/10 09:43:41;;;;;;;7.28;4.72;;;4.70;63.50;;;1.20;83.07;93997.81;4950564;28;20097;-73
2021/12/10 09:46:09;;;;;;;8.60;4.85;;;5.10;62.20;;;1.38;82.32;94004.38;4950742;28;20039;-72
2021/12/10 09:48:34;;;;;;;6.88;4.57;;;5.60;60.00;;;1.52;82.31;93990.56;4934862;28;20094;-73
2021/12/10 09:51:07;;;;;;;7.05;4.32;;;6.20;57.90;;;1.80;80.54;93986.22;4933451;28;20039;-73
2021/12/10 09:53:34;;;;;;;8.13;4.28;;;7.10;55.20;;;2.05;81.32;93991.03;4949925;28;20047;-74
2021/12/10 09:56:00;;;;;;;6.90;4.20;;;8.10;52.20;;;2.31;80.67;93996.38;4947379;28;20035;-74
2021/12/10 09:58:26;;;;;;;5.32;3.65;;;8.90;49.40;;;2.57;80.12;93994.94;4935599;28;20396;-72
2021/12/10 10:01:08;;;;;;;5.45;3.35;;;9.50;47.40;;;2.88;75.50;93984.88;4937587;28;20047;-74
2021/12/10 10:03:37;;;;;;;7.72;3.75;;;10.60;44.80;;;3.19;78.15;93976.63;4954042;28;20039;-73
2021/12/10 10:06:04;;;;;;;7.43;4.10;;;12.00;41.30;;;3.41;77.96;93963.50;4938432;28;20387;-74
2021/12/10 10:08:32;;;;;;;6.78;4.18;;;13.10;38.30;;;3.73;78.02;93964.53;4938137;28;20039;-74
2021/12/10 10:11:06;;;;;;;5.50;3.85;;;13.20;37.60;;;4.05;76.43;93947.31;4953267;28;20414;-73
2021/12/10 10:13:35;;;;;;;5.53;3.63;;;12.70;38.10;;;4.36;75.51;93944.09;4952902;28;20059;-74
2021/12/10 10:16:00;;;;;;;5.05;2.90;;;11.70;39.70;;;4.51;74.79;93939.41;4922081;29;20122;-71
2021/12/10 10:18:28;;;;;;;4.65;2.90;;;10.60;41.50;;;4.52;73.01;93923.59;4937807;28;20043;-73
2021/12/10 10:20:57;;;;;;;4.78;3.10;;;9.70;43.50;;;4.46;70.83;93906.22;4937423;28;20063;-73
2021/12/10 10:23:24;;;;;;;4.13;2.80;;;9.00;45.10;;;4.40;70.64;93903.63;4937124;29;20503;-74
2021/12/10 10:25:52;;;;;;;7.35;3.03;;;8.50;46.40;;;4.33;70.04;93895.06;4937738;29;20061;-73
2021/12/10 10:28:18;;;;;;;3.35;2.80;;;8.10;47.50;;;4.20;70.46;93873.25;4937996;29;20035;-72
2021/12/10 10:30:58;;;;;;;4.43;2.80;;;7.80;48.40;;;4.06;67.00;93856.06;4918830;29;20058;-73